createdAt,value
2023-04-23T00:00:48.400Z,11.20
2023-04-23T00:03:18.097Z,11.10
2023-04-23T00:05:46.190Z,11.10
2023-04-23T00:08:16.831Z,11.60
2023-04-23T00:10:43.785Z,11.40
2023-04-23T00:13:11.451Z,11.20
2023-04-23T00:15:38.933Z,11.10
2023-04-23T00:18:10.725Z,10.90
2023-04-23T00:20:37.471Z,10.80
2023-04-23T00:23:04.593Z,10.80
2023-04-23T00:25:34.136Z,10.80
2023-04-23T00:28:02.294Z,10.60
2023-04-23T00:30:29.520Z,10.60
2023-04-23T00:32:56.830Z,10.50
2023-04-23T00:35:24.518Z,10.40
2023-04-23T00:37:51.321Z,10.40
2023-04-23T00:40:18.731Z,10.40
2023-04-23T00:42:45.786Z,10.40
2023-04-23T00:45:15.611Z,10.10
2023-04-23T00:47:43.426Z,10.20
2023-04-23T00:50:13.075Z,10.00
2023-04-23T00:52:41.211Z,10.10
2023-04-23T00:55:09.098Z,10.10
2023-04-23T00:57:39.363Z,10.00
2023-04-23T01:00:09.813Z,10.00
2023-04-23T01:02:38.536Z,10.00
2023-04-23T01:05:07.906Z,9.90
2023-04-23T01:07:35.825Z,9.80
2023-04-23T01:10:04.257Z,9.70
2023-04-23T01:12:37.089Z,9.80
2023-04-23T01:15:04.420Z,9.70
2023-04-23T01:17:32.551Z,9.70
2023-04-23T01:19:59.260Z,9.60
2023-04-23T01:22:30.354Z,9.70
2023-04-23T01:25:02.050Z,9.60
2023-04-23T01:27:28.892Z,9.50
2023-04-23T01:29:56.800Z,9.40
2023-04-23T01:32:25.462Z,9.50
2023-04-23T01:34:54.492Z,9.50
2023-04-23T01:37:24.220Z,9.50
2023-04-23T01:39:52.357Z,9.50
2023-04-23T01:42:20.871Z,9.60
2023-04-23T01:44:48.945Z,9.50
2023-04-23T01:47:17.590Z,9.50
2023-04-23T01:49:44.285Z,9.50
2023-04-23T01:52:12.481Z,9.50
2023-04-23T01:54:39.356Z,9.40
2023-04-23T01:57:07.531Z,9.50
2023-04-23T01:59:37.697Z,9.40
2023-04-23T02:02:04.881Z,9.40
2023-04-23T02:04:34.031Z,9.50
2023-04-23T02:07:02.449Z,9.40
2023-04-23T02:09:29.771Z,9.40
2023-04-23T02:11:58.031Z,9.40
2023-04-23T02:14:26.619Z,9.30
2023-04-23T02:16:53.452Z,9.30
2023-04-23T02:19:20.793Z,9.30
2023-04-23T02:21:47.933Z,9.20
2023-04-23T02:24:14.644Z,9.20
2023-04-23T02:26:41.746Z,9.30
2023-04-23T02:29:10.927Z,9.10
2023-04-23T02:31:38.176Z,9.20
2023-04-23T02:34:04.948Z,9.10
2023-04-23T02:36:32.880Z,9.10
2023-04-23T02:38:59.554Z,9.30
2023-04-23T02:41:26.845Z,9.10
2023-04-23T02:43:53.543Z,9.00
2023-04-23T02:46:21.987Z,9.20
2023-04-23T02:48:48.798Z,9.10
2023-04-23T02:51:16.444Z,9.60
2023-04-23T02:53:43.463Z,9.10
2023-04-23T02:56:10.245Z,9.10
2023-04-23T02:58:37.381Z,9.10
2023-04-23T03:01:07.138Z,9.20
2023-04-23T03:03:34.701Z,9.20
2023-04-23T03:06:02.663Z,9.10
2023-04-23T03:08:29.431Z,9.00
2023-04-23T03:10:56.373Z,8.90
2023-04-23T03:13:23.570Z,8.90
2023-04-23T03:15:53.355Z,8.90
2023-04-23T03:18:21.053Z,8.80
2023-04-23T03:20:48.160Z,8.80
2023-04-23T03:23:14.857Z,9.40
2023-04-23T03:25:42.001Z,8.80
2023-04-23T03:28:08.755Z,8.80
2023-04-23T03:30:35.981Z,8.60
2023-04-23T03:33:03.151Z,8.60
2023-04-23T03:35:30.322Z,8.60
2023-04-23T03:37:57.043Z,8.60
2023-04-23T03:40:23.826Z,8.50
2023-04-23T03:42:50.613Z,8.50
2023-04-23T03:45:17.509Z,8.50
2023-04-23T03:47:45.014Z,8.50
2023-04-23T03:50:14.836Z,8.60
2023-04-23T03:52:42.025Z,8.70
2023-04-23T03:55:09.391Z,8.60
2023-04-23T03:57:37.387Z,8.70
2023-04-23T04:00:16.500Z,8.50
2023-04-23T04:02:43.878Z,8.50
2023-04-23T04:05:13.912Z,8.50
2023-04-23T04:07:41.233Z,8.60
2023-04-23T04:10:08.224Z,8.60
2023-04-23T04:12:35.446Z,8.60
2023-04-23T04:15:03.932Z,8.60
2023-04-23T04:17:31.065Z,8.60
2023-04-23T04:19:57.792Z,8.70
2023-04-23T04:22:24.624Z,8.90
2023-04-23T04:24:52.722Z,8.90
2023-04-23T04:27:19.932Z,9.00
2023-04-23T04:29:47.033Z,9.10
2023-04-23T04:32:13.966Z,9.30
2023-04-23T04:34:41.102Z,9.40
2023-04-23T04:37:08.392Z,9.70
2023-04-23T04:39:35.262Z,9.80
2023-04-23T04:42:02.951Z,10.10
2023-04-23T04:44:30.691Z,10.10
2023-04-23T04:46:57.634Z,10.00
2023-04-23T04:49:24.719Z,9.90
2023-04-23T04:51:51.818Z,10.10
2023-04-23T04:54:18.511Z,10.10
2023-04-23T04:56:45.847Z,10.20
2023-04-23T04:59:12.609Z,10.50
2023-04-23T05:01:39.745Z,10.40
2023-04-23T05:04:06.631Z,10.60
2023-04-23T05:06:33.941Z,10.70
2023-04-23T05:09:00.743Z,11.10
2023-04-23T05:11:27.579Z,11.30
2023-04-23T05:13:54.366Z,11.20
2023-04-23T05:16:22.471Z,11.50
2023-04-23T05:18:49.592Z,11.60
2023-04-23T05:21:16.645Z,11.70
2023-04-23T05:23:43.753Z,11.70
2023-04-23T05:26:11.660Z,11.80
2023-04-23T05:28:38.379Z,11.90
2023-04-23T05:31:06.059Z,12.10
2023-04-23T05:33:39.208Z,12.20
2023-04-23T05:36:09.797Z,12.30
2023-04-23T05:38:37.022Z,12.40
2023-04-23T05:41:05.129Z,13.00
2023-04-23T05:43:31.877Z,12.60
2023-04-23T05:46:04.333Z,13.10
2023-04-23T05:48:32.045Z,13.30
2023-04-23T05:50:59.173Z,13.40
2023-04-23T05:53:27.240Z,13.40
2023-04-23T05:55:53.947Z,13.60
2023-04-23T05:58:20.779Z,13.80
2023-04-23T06:00:49.259Z,14.10
2023-04-23T06:03:19.520Z,14.40
2023-04-23T06:05:46.931Z,14.40
2023-04-23T06:08:13.697Z,14.60
2023-04-23T06:10:40.419Z,15.00
2023-04-23T06:13:07.802Z,15.20
2023-04-23T06:15:34.542Z,15.40
2023-04-23T06:18:01.288Z,15.60
2023-04-23T06:20:28.542Z,15.80
2023-04-23T06:22:55.696Z,15.70
2023-04-23T06:25:22.514Z,16.00
2023-04-23T06:27:51.972Z,16.20
2023-04-23T06:30:18.748Z,16.30
2023-04-23T06:32:46.309Z,16.90
2023-04-23T06:35:13.437Z,17.70
2023-04-23T06:37:40.268Z,18.40
2023-04-23T06:40:08.008Z,18.60
2023-04-23T06:42:35.107Z,19.10
2023-04-23T06:45:06.222Z,19.40
2023-04-23T06:47:33.719Z,19.60
2023-04-23T06:50:00.515Z,19.70
2023-04-23T06:52:27.741Z,20.10
2023-04-23T06:54:54.912Z,20.70
2023-04-23T06:57:22.046Z,20.90
2023-04-23T06:59:49.261Z,21.10
2023-04-23T07:02:16.032Z,21.00
2023-04-23T07:04:43.628Z,21.70
2023-04-23T07:07:13.141Z,22.90
2023-04-23T07:09:40.104Z,24.00
2023-04-23T07:12:07.397Z,25.60
2023-04-23T07:14:34.173Z,26.60
2023-04-23T07:17:01.171Z,27.60
2023-04-23T07:19:28.317Z,26.70
2023-04-23T07:21:55.414Z,27.70
2023-04-23T07:24:22.197Z,28.90
2023-04-23T07:26:51.169Z,29.50
2023-04-23T07:29:17.958Z,29.70
2023-04-23T07:31:45.082Z,29.80
2023-04-23T07:34:12.112Z,30.10
2023-04-23T07:36:38.980Z,29.70
2023-04-23T07:39:06.658Z,30.00
2023-04-23T07:41:33.774Z,29.90
2023-04-23T07:44:01.066Z,30.60
2023-04-23T07:46:28.071Z,29.50
2023-04-23T07:48:55.599Z,29.30
2023-04-23T07:51:27.872Z,29.20
2023-04-23T07:53:54.685Z,31.10
2023-04-23T07:56:24.932Z,31.90
2023-04-23T07:58:53.915Z,31.70
2023-04-23T08:01:22.025Z,31.60
2023-04-23T08:03:48.994Z,30.30
2023-04-23T08:06:16.527Z,30.00
2023-04-23T08:08:43.282Z,29.50
2023-04-23T08:11:12.931Z,28.90
2023-04-23T08:13:39.882Z,29.50
2023-04-23T08:16:07.435Z,29.60
2023-04-23T08:18:35.928Z,30.40
2023-04-23T08:21:05.163Z,31.10
2023-04-23T08:23:32.390Z,31.70
2023-04-23T08:25:59.417Z,32.00
2023-04-23T08:28:28.005Z,30.80
2023-04-23T08:30:54.853Z,30.30
2023-04-23T08:33:21.899Z,30.90
2023-04-23T08:35:48.734Z,31.60
2023-04-23T08:38:15.654Z,31.50
2023-04-23T08:40:44.322Z,30.10
2023-04-23T08:43:16.641Z,29.10
2023-04-23T08:45:48.190Z,28.40
2023-04-23T08:48:16.119Z,27.10
2023-04-23T08:50:43.921Z,26.70
2023-04-23T08:53:10.952Z,27.20
2023-04-23T08:55:37.751Z,27.80
2023-04-23T08:58:06.842Z,28.30
2023-04-23T09:00:35.236Z,28.40
2023-04-23T09:03:02.808Z,28.90
2023-04-23T09:05:31.313Z,28.70
2023-04-23T09:07:59.703Z,29.00
2023-04-23T09:10:28.899Z,29.60
2023-04-23T09:12:55.710Z,29.50
2023-04-23T09:15:22.477Z,28.40
2023-04-23T09:17:50.324Z,27.70
2023-04-23T09:20:17.727Z,27.40
2023-04-23T09:22:52.684Z,27.10
2023-04-23T09:25:21.319Z,26.40
2023-04-23T09:27:52.103Z,25.80
2023-04-23T09:30:30.394Z,25.30
2023-04-23T09:32:58.619Z,24.80
2023-04-23T09:35:30.231Z,24.50
2023-04-23T09:37:59.221Z,24.70
2023-04-23T09:40:31.808Z,25.00
2023-04-23T09:42:58.660Z,25.40
2023-04-23T09:45:26.225Z,25.50
2023-04-23T09:47:56.699Z,25.60
2023-04-23T09:50:38.462Z,25.50
2023-04-23T09:53:06.997Z,25.00
2023-04-23T09:55:38.725Z,25.00
2023-04-23T09:58:08.152Z,24.90
2023-04-23T10:00:43.552Z,24.70
2023-04-23T10:03:14.045Z,24.60
2023-04-23T10:05:59.861Z,24.70
2023-04-23T10:08:31.019Z,24.60
2023-04-23T10:11:14.066Z,24.60
2023-04-23T10:13:49.599Z,24.70
2023-04-23T10:16:23.297Z,25.00
2023-04-23T10:19:01.794Z,25.00
2023-04-23T10:21:39.666Z,25.00
2023-04-23T10:24:15.692Z,24.60
2023-04-23T10:26:45.010Z,25.10
2023-04-23T10:29:18.454Z,25.00
2023-04-23T10:31:46.923Z,25.00
2023-04-23T10:34:18.655Z,25.10
2023-04-23T10:36:47.049Z,25.20
2023-04-23T10:39:20.860Z,25.00
2023-04-23T10:41:56.136Z,25.00
2023-04-23T10:44:45.088Z,25.20
2023-04-23T10:47:19.512Z,25.10
2023-04-23T10:49:49.892Z,25.30
2023-04-23T10:52:21.506Z,25.60
2023-04-23T10:55:00.002Z,25.60
2023-04-23T10:57:28.680Z,25.50
2023-04-23T10:59:59.162Z,25.70
2023-04-23T11:02:26.664Z,26.10
2023-04-23T11:04:58.932Z,26.40
2023-04-23T11:07:30.902Z,26.60
2023-04-23T11:10:02.232Z,26.60
2023-04-23T11:12:39.216Z,26.70
2023-04-23T11:15:18.515Z,27.30
2023-04-23T11:17:47.275Z,27.60
2023-04-23T11:20:22.575Z,27.30
2023-04-23T11:22:50.627Z,27.50
2023-04-23T11:25:27.168Z,28.00
2023-04-23T11:27:56.189Z,27.70
2023-04-23T11:30:35.152Z,27.40
2023-04-23T11:33:02.720Z,27.30
2023-04-23T11:35:31.972Z,27.50
2023-04-23T11:37:58.784Z,27.40
2023-04-23T11:40:25.817Z,27.40
2023-04-23T11:42:55.379Z,27.10
2023-04-23T11:45:29.393Z,26.90
2023-04-23T11:47:58.681Z,27.10
2023-04-23T11:50:33.782Z,27.10
2023-04-23T11:53:11.353Z,26.70
2023-04-23T11:55:38.876Z,26.60
2023-04-23T11:58:05.831Z,26.50
2023-04-23T12:00:35.661Z,26.50
2023-04-23T12:03:05.880Z,26.50
2023-04-23T12:05:40.531Z,26.10
2023-04-23T12:08:11.969Z,26.00
2023-04-23T12:10:52.006Z,25.80
2023-04-23T12:13:30.814Z,25.70
2023-04-23T12:15:59.675Z,25.70
2023-04-23T12:18:39.430Z,25.60
2023-04-23T12:21:11.121Z,25.50
2023-04-23T12:23:42.353Z,25.40
2023-04-23T12:26:13.794Z,25.20
2023-04-23T12:28:58.533Z,25.20
2023-04-23T12:31:30.191Z,25.40
2023-04-23T12:34:04.934Z,25.00
2023-04-23T12:36:33.070Z,24.80
2023-04-23T12:39:32.570Z,25.00
2023-04-23T12:42:08.183Z,25.00
2023-04-23T12:44:36.413Z,25.20
2023-04-23T12:47:07.409Z,25.20
2023-04-23T12:49:36.680Z,25.00
2023-04-23T12:52:04.908Z,25.20
2023-04-23T12:54:34.038Z,25.20
2023-04-23T12:57:04.035Z,25.00
2023-04-23T12:59:32.293Z,24.70
2023-04-23T13:02:02.547Z,24.50
2023-04-23T13:04:31.764Z,24.20
2023-04-23T13:06:58.832Z,24.00
2023-04-23T13:09:27.912Z,23.90
2023-04-23T13:11:55.625Z,23.90
2023-04-23T13:14:22.407Z,24.00
2023-04-23T13:16:49.513Z,23.70
2023-04-23T13:19:17.416Z,23.60
2023-04-23T13:21:45.375Z,23.50
2023-04-23T13:24:12.241Z,23.50
2023-04-23T13:26:39.727Z,23.40
2023-04-23T13:29:07.074Z,23.30
2023-04-23T13:31:34.928Z,23.20
2023-04-23T13:34:03.400Z,23.20
2023-04-23T13:36:30.685Z,23.20
2023-04-23T13:38:57.585Z,23.10
2023-04-23T13:41:24.577Z,23.30
2023-04-23T13:43:51.533Z,23.30
2023-04-23T13:46:20.468Z,23.30
2023-04-23T13:48:47.393Z,23.40
2023-04-23T13:51:33.135Z,23.70
2023-04-23T13:54:02.216Z,23.60
2023-04-23T13:56:30.614Z,23.60
2023-04-23T13:59:18.188Z,23.50
2023-04-23T14:01:51.912Z,23.30
2023-04-23T14:04:19.097Z,23.40
2023-04-23T14:06:46.623Z,23.30
2023-04-23T14:09:14.689Z,23.60
2023-04-23T14:11:44.835Z,23.60
2023-04-23T14:14:14.064Z,23.30
2023-04-23T14:16:41.273Z,23.60
2023-04-23T14:19:11.110Z,23.20
2023-04-23T14:21:38.009Z,23.20
2023-04-23T14:24:22.674Z,23.00
2023-04-23T14:26:50.209Z,22.80
2023-04-23T14:29:23.064Z,22.60
2023-04-23T14:31:51.103Z,22.50
2023-04-23T14:34:18.203Z,22.60
2023-04-23T14:36:46.589Z,22.40
2023-04-23T14:39:13.332Z,22.50
2023-04-23T14:41:41.021Z,22.70
2023-04-23T14:44:08.337Z,22.70
2023-04-23T14:46:35.480Z,22.60
2023-04-23T14:49:05.589Z,22.30
2023-04-23T14:51:42.218Z,22.20
2023-04-23T14:54:09.318Z,21.90
2023-04-23T14:56:44.674Z,22.00
2023-04-23T14:59:12.426Z,21.90
2023-04-23T15:01:39.473Z,21.40
2023-04-23T15:04:06.862Z,21.00
2023-04-23T15:06:34.111Z,20.70
2023-04-23T15:09:00.856Z,20.60
2023-04-23T15:11:30.973Z,20.40
2023-04-23T15:14:16.306Z,20.10
2023-04-23T15:16:50.263Z,20.00
2023-04-23T15:19:20.429Z,20.00
2023-04-23T15:21:48.444Z,20.10
2023-04-23T15:24:16.138Z,20.10
2023-04-23T15:26:43.754Z,20.30
2023-04-23T15:29:10.751Z,20.00
2023-04-23T15:31:38.313Z,20.00
2023-04-23T15:34:08.442Z,19.90
2023-04-23T15:36:38.089Z,19.80
2023-04-23T15:39:06.527Z,19.50
2023-04-23T15:41:34.469Z,19.50
2023-04-23T15:44:02.372Z,19.10
2023-04-23T15:46:29.532Z,19.00
2023-04-23T15:48:56.299Z,18.90
2023-04-23T15:51:23.399Z,18.90
2023-04-23T15:53:51.538Z,18.90
2023-04-23T15:56:18.342Z,18.70
2023-04-23T15:58:45.564Z,19.20
2023-04-23T16:01:12.780Z,18.30
2023-04-23T16:03:40.371Z,18.40
2023-04-23T16:06:12.673Z,18.50
2023-04-23T16:08:39.842Z,18.40
2023-04-23T16:11:09.354Z,18.90
2023-04-23T16:13:36.314Z,18.20
2023-04-23T16:16:03.504Z,18.10
2023-04-23T16:18:32.235Z,18.20
2023-04-23T16:21:03.201Z,18.60
2023-04-23T16:23:29.929Z,18.30
2023-04-23T16:25:57.849Z,18.50
2023-04-23T16:28:24.723Z,18.30
2023-04-23T16:30:54.092Z,18.60
2023-04-23T16:33:22.562Z,18.10
2023-04-23T16:35:49.356Z,17.90
2023-04-23T16:38:18.782Z,17.70
2023-04-23T16:40:47.415Z,17.20
2023-04-23T16:43:14.389Z,17.40
2023-04-23T16:45:48.548Z,16.80
2023-04-23T16:48:17.224Z,17.40
2023-04-23T16:50:46.192Z,17.30
2023-04-23T16:53:33.412Z,18.50
2023-04-23T16:56:07.818Z,17.10
2023-04-23T16:58:40.024Z,17.00
2023-04-23T17:01:15.086Z,17.30
2023-04-23T17:03:43.606Z,16.80
2023-04-23T17:06:22.157Z,16.80
2023-04-23T17:08:50.907Z,16.90
2023-04-23T17:11:17.985Z,17.30
2023-04-23T17:13:49.401Z,17.00
2023-04-23T17:16:16.673Z,17.20
2023-04-23T17:18:45.024Z,16.60
2023-04-23T17:21:12.438Z,16.60
2023-04-23T17:23:41.097Z,16.90
2023-04-23T17:26:09.729Z,17.00
2023-04-23T17:28:36.661Z,17.30
2023-04-23T17:31:04.094Z,16.90
2023-04-23T17:33:31.981Z,16.80
2023-04-23T17:36:04.707Z,16.50
2023-04-23T17:38:32.212Z,16.50
2023-04-23T17:41:07.879Z,17.00
2023-04-23T17:43:38.722Z,16.70
2023-04-23T17:46:09.990Z,16.30
2023-04-23T17:48:37.403Z,16.40
2023-04-23T17:51:06.089Z,16.40
2023-04-23T17:53:33.352Z,16.50
2023-04-23T17:56:03.402Z,16.40
2023-04-23T17:58:31.341Z,17.30
2023-04-23T18:00:58.271Z,16.30
2023-04-23T18:03:29.048Z,16.20
2023-04-23T18:05:55.981Z,16.50
2023-04-23T18:08:22.939Z,16.50
2023-04-23T18:10:49.912Z,17.30
2023-04-23T18:13:17.111Z,16.60
2023-04-23T18:15:45.875Z,16.40
2023-04-23T18:18:12.701Z,16.00
2023-04-23T18:20:40.299Z,17.20
2023-04-23T18:23:08.040Z,17.00
2023-04-23T18:25:34.799Z,16.30
2023-04-23T18:28:02.433Z,16.20
2023-04-23T18:30:29.918Z,16.30
2023-04-23T18:33:13.398Z,16.30
2023-04-23T18:35:50.052Z,16.20
2023-04-23T18:38:41.967Z,16.10
2023-04-23T18:41:08.866Z,16.20
2023-04-23T18:43:40.772Z,16.10
2023-04-23T18:46:10.053Z,16.20
2023-04-23T18:49:00.154Z,16.00
2023-04-23T18:51:33.237Z,16.00
2023-04-23T18:54:02.516Z,16.20
2023-04-23T18:56:30.664Z,16.30
2023-04-23T18:59:02.076Z,16.20
2023-04-23T19:01:29.070Z,16.70
2023-04-23T19:04:01.610Z,16.20
2023-04-23T19:06:30.896Z,15.80
2023-04-23T19:08:58.643Z,16.20
2023-04-23T19:11:27.763Z,16.30
2023-04-23T19:13:54.471Z,15.80
2023-04-23T19:16:25.913Z,16.30
2023-04-23T19:18:52.803Z,16.20
2023-04-23T19:21:19.937Z,16.10
2023-04-23T19:23:47.422Z,16.40
2023-04-23T19:26:15.343Z,16.10
2023-04-23T19:28:42.167Z,16.30
2023-04-23T19:31:09.726Z,16.20
2023-04-23T19:33:37.641Z,16.30
2023-04-23T19:36:06.220Z,16.20
2023-04-23T19:38:34.980Z,16.00
2023-04-23T19:41:02.548Z,15.80
2023-04-23T19:43:32.453Z,15.90
2023-04-23T19:46:03.072Z,15.80
2023-04-23T19:48:32.099Z,15.70
2023-04-23T19:51:00.152Z,15.80
2023-04-23T19:53:28.407Z,15.70
2023-04-23T19:55:55.496Z,15.70
2023-04-23T19:58:23.864Z,15.60
2023-04-23T20:00:51.057Z,15.90
2023-04-23T20:03:19.088Z,15.90
2023-04-23T20:05:49.518Z,15.80
2023-04-23T20:08:25.867Z,15.70
2023-04-23T20:10:53.647Z,15.70
2023-04-23T20:13:20.767Z,15.70
2023-04-23T20:15:49.869Z,15.90
2023-04-23T20:18:17.745Z,15.60
2023-04-23T20:20:44.846Z,15.40
2023-04-23T20:23:12.068Z,15.70
2023-04-23T20:25:48.032Z,15.80
2023-04-23T20:28:15.338Z,15.60
2023-04-23T20:30:42.160Z,15.90
2023-04-23T20:33:10.867Z,16.00
2023-04-23T20:35:39.889Z,16.70
2023-04-23T20:38:09.551Z,16.60
2023-04-23T20:40:36.336Z,15.90
2023-04-23T20:43:05.945Z,16.40
2023-04-23T20:45:34.180Z,16.30
2023-04-23T20:48:02.618Z,16.00
2023-04-23T20:50:30.656Z,16.00
2023-04-23T20:52:59.335Z,16.10
2023-04-23T20:55:26.175Z,16.10
2023-04-23T20:57:52.931Z,16.00
2023-04-23T21:00:20.631Z,15.90
2023-04-23T21:02:47.953Z,15.70
2023-04-23T21:05:16.991Z,15.60
2023-04-23T21:07:44.456Z,15.60
2023-04-23T21:10:11.379Z,15.60
2023-04-23T21:12:38.371Z,15.60
2023-04-23T21:15:06.110Z,15.40
2023-04-23T21:17:32.888Z,15.40
2023-04-23T21:19:59.664Z,15.30
2023-04-23T21:22:26.372Z,15.10
2023-04-23T21:24:53.574Z,15.00
2023-04-23T21:27:21.801Z,15.40
2023-04-23T21:29:49.395Z,14.80
2023-04-23T21:32:16.483Z,14.70
2023-04-23T21:34:43.662Z,14.70
2023-04-23T21:37:10.684Z,15.40
2023-04-23T21:39:38.643Z,14.90
2023-04-23T21:42:06.037Z,15.20
2023-04-23T21:44:32.932Z,15.10
2023-04-23T21:46:59.828Z,15.50
2023-04-23T21:49:27.845Z,16.40
2023-04-23T21:51:55.111Z,14.60
2023-04-23T21:54:22.409Z,15.20
2023-04-23T21:56:49.561Z,14.80
2023-04-23T21:59:16.382Z,14.40
2023-04-23T22:01:46.066Z,14.20
2023-04-23T22:04:13.763Z,14.20
2023-04-23T22:06:40.658Z,15.20
2023-04-23T22:09:07.997Z,14.20
2023-04-23T22:11:35.167Z,14.20
2023-04-23T22:14:02.307Z,14.20
2023-04-23T22:16:29.388Z,14.30
2023-04-23T22:19:00.472Z,14.20
2023-04-23T22:21:28.349Z,14.30
2023-04-23T22:23:56.421Z,14.10
2023-04-23T22:26:23.191Z,14.20
2023-04-23T22:28:50.280Z,14.10
2023-04-23T22:31:17.763Z,14.00
2023-04-23T22:33:46.267Z,13.90
2023-04-23T22:36:14.012Z,13.70
2023-04-23T22:38:40.827Z,13.70
2023-04-23T22:41:08.166Z,13.70
2023-04-23T22:43:34.893Z,13.70
2023-04-23T22:46:02.130Z,13.70
2023-04-23T22:48:29.083Z,13.90
2023-04-23T22:50:59.257Z,13.80
2023-04-23T22:53:26.224Z,13.60
2023-04-23T22:55:53.223Z,14.20
2023-04-23T22:58:20.463Z,13.70
2023-04-23T23:00:47.275Z,14.30
2023-04-23T23:03:14.513Z,13.90
2023-04-23T23:05:41.736Z,13.70
2023-04-23T23:08:08.528Z,14.70
2023-04-23T23:10:35.752Z,14.10
2023-04-23T23:13:02.566Z,14.10
2023-04-23T23:15:29.860Z,13.90
2023-04-23T23:17:57.834Z,14.00
2023-04-23T23:20:25.331Z,14.10
2023-04-23T23:22:52.349Z,14.10
2023-04-23T23:25:19.732Z,14.40
2023-04-23T23:27:46.529Z,14.60
2023-04-23T23:30:15.805Z,14.60
2023-04-23T23:32:42.694Z,14.00
2023-04-23T23:35:09.854Z,15.40
2023-04-23T23:37:36.761Z,13.80
2023-04-23T23:40:05.733Z,13.90
2023-04-23T23:42:32.862Z,13.60
2023-04-23T23:45:00.004Z,13.60
2023-04-23T23:47:29.337Z,13.40
2023-04-23T23:49:56.196Z,13.60
2023-04-23T23:52:23.553Z,13.80
2023-04-23T23:54:51.334Z,13.60
2023-04-23T23:57:18.089Z,13.70
2023-04-23T23:59:45.490Z,14.20
